PWSweather.com
Personal Weather Stations
Station Observations
KCOGRAND2
Redlands, Southcamp Road & Dakota Circle, Grand Junction, CO 81507

Redlands, Southcamp Road & Dakota CircleGrand Junction, CO 81507

Lat: 39.055, Lon: -108.637

Elevation: 4870

Station Type: RadioShack WX200

High Low Average
Temperature 69.6°F20.9°C 37.2°F2.9°C 52.0°F11.1°C
Dew Point 9.0°F-12.8°C -4.9°F-20.5°C 1.4°F-17.0°C
Winds 8.0 mph 12.9 kmh Calm Calm 3.0 mph SE4.8 kmh SE
Wind Gusts 13.4 mph21.6 kmh -- 5.0 mph8.0 kmh
Humidity 29% 11% 17%
Pressure 25.37 in859.1 mb 25.22 in854.0 mb -
Precipitation 0.00 in0.0 mm - -
Hour Temp Dew Point Humidity Winds Wind Gusts Pressure Precip Precip Rate Daily Precip Total
12:01 AM 48.0°F8.9°C -5537.2°C - 3.0 mph E4.8 kmh E 4.9 mph7.9 kmh 25.28 in856.1 mb 0.00 in0.0 mm 0.00 in/hr0.0 mm/hr 0.00 in0.0 mm
12:06 AM 47.3°F8.5°C -5537.2°C - 1.0 mph E1.6 kmh E 3.6 mph5.8 kmh 25.28 in856.1 mb 0.00 in0.0 mm 0.00 in/hr0.0 mm/hr 0.00 in0.0 mm
12:11 AM 46.0°F7.8°C -5537.2°C - 1.0 mph E1.6 kmh E 4.0 mph6.4 kmh 25.28 in856.1 mb 0.00 in0.0 mm 0.00 in/hr0.0 mm/hr 0.00 in0.0 mm
12:16 AM 44.8°F7.1°C -5537.2°C - 3.0 mph E4.8 kmh E 4.5 mph7.2 kmh 25.28 in856.1 mb 0.00 in0.0 mm 0.00 in/hr0.0 mm/hr 0.00 in0.0 mm
12:21 AM 43.7°F6.5°C -5537.2°C - 1.0 mph E1.6 kmh E 3.1 mph5.0 kmh 25.28 in856.1 mb 0.00 in0.0 mm 0.00 in/hr0.0 mm/hr 0.00 in0.0 mm
12:26 AM 43.3°F6.3°C -4.2°F-20.1°C 13% 1.0 mph E1.6 kmh E 3.6 mph5.8 kmh 25.28 in856.1 mb 0.00 in0.0 mm 0.00 in/hr0.0 mm/hr 0.00 in0.0 mm
12:31 AM 42.6°F5.9°C -4.7°F-20.4°C 13% 2.0 mph E3.2 kmh E 4.0 mph6.4 kmh 25.28 in856.1 mb 0.00 in0.0 mm 0.00 in/hr0.0 mm/hr 0.00 in0.0 mm
12:36 AM 42.4°F5.8°C -4.9°F-20.5°C 13% 1.0 mph E1.6 kmh E 3.6 mph5.8 kmh 25.28 in856.1 mb 0.00 in0.0 mm 0.00 in/hr0.0 mm/hr 0.00 in0.0 mm
12:41 AM 42.6°F5.9°C -1.7°F-18.7°C 15% Calm Calm -- 25.28 in856.1 mb 0.00 in0.0 mm 0.00 in/hr0.0 mm/hr 0.00 in0.0 mm
12:46 AM 43.2°F6.2°C -1.3°F-18.5°C 15% Calm Calm -- 25.28 in856.1 mb 0.00 in0.0 mm 0.00 in/hr0.0 mm/hr 0.00 in0.0 mm
12:51 AM 44.1°F6.7°C -0.6°F-18.1°C 15% Calm Calm -- 25.28 in856.1 mb 0.00 in0.0 mm 0.00 in/hr0.0 mm/hr 0.00 in0.0 mm
12:56 AM 43.5°F6.4°C -0.9°F-18.3°C 15% Calm Calm -- 25.28 in856.1 mb 0.00 in0.0 mm 0.00 in/hr0.0 mm/hr 0.00 in0.0 mm
01:01 AM 43.3°F6.3°C -1.1°F-18.4°C 15% Calm Calm 3.1 mph5.0 kmh 25.28 in856.1 mb 0.00 in0.0 mm 0.00 in/hr0.0 mm/hr 0.00 in0.0 mm
01:06 AM 42.3°F5.7°C -2.0°F-18.9°C 15% Calm Calm 3.1 mph5.0 kmh 25.28 in856.1 mb 0.00 in0.0 mm 0.00 in/hr0.0 mm/hr 0.00 in0.0 mm
01:11 AM 42.3°F5.7°C -2.0°F-18.9°C 15% 1.0 mph E1.6 kmh E 3.6 mph5.8 kmh 25.28 in856.1 mb 0.00 in0.0 mm 0.00 in/hr0.0 mm/hr 0.00 in0.0 mm
01:16 AM 42.4°F5.8°C -4.9°F-20.5°C 13% 2.0 mph E3.2 kmh E 4.9 mph7.9 kmh 25.28 in856.1 mb 0.00 in0.0 mm 0.00 in/hr0.0 mm/hr 0.00 in0.0 mm
01:21 AM 43.0°F6.1°C -1.5°F-18.6°C 15% 2.0 mph E3.2 kmh E 3.6 mph5.8 kmh 25.28 in856.1 mb 0.00 in0.0 mm 0.00 in/hr0.0 mm/hr 0.00 in0.0 mm
01:26 AM 41.2°F5.1°C -1.5°F-18.6°C 16% 2.0 mph E3.2 kmh E 4.5 mph7.2 kmh 25.28 in856.1 mb 0.00 in0.0 mm 0.00 in/hr0.0 mm/hr 0.00 in0.0 mm
01:31 AM 39.9°F4.4°C -2.6°F-19.2°C 16% 2.0 mph E3.2 kmh E 4.5 mph7.2 kmh 25.28 in856.1 mb 0.00 in0.0 mm 0.00 in/hr0.0 mm/hr 0.00 in0.0 mm
01:36 AM 39.4°F4.1°C -0.6°F-18.1°C 18% 2.0 mph E3.2 kmh E 4.5 mph7.2 kmh 25.31 in857.1 mb 0.00 in0.0 mm 0.00 in/hr0.0 mm/hr 0.00 in0.0 mm
01:41 AM 39.4°F4.1°C -0.6°F-18.1°C 18% 1.0 mph E1.6 kmh E 2.7 mph4.3 kmh 25.31 in857.1 mb 0.00 in0.0 mm 0.00 in/hr0.0 mm/hr 0.00 in0.0 mm
01:46 AM 40.6°F4.8°C 0.5°F-17.5°C 18% 1.0 mph E1.6 kmh E 4.0 mph6.4 kmh 25.31 in857.1 mb 0.00 in0.0 mm 0.00 in/hr0.0 mm/hr 0.00 in0.0 mm
01:51 AM 41.0°F5.0°C 0.9°F-17.3°C 18% 2.0 mph E3.2 kmh E 4.0 mph6.4 kmh 25.31 in857.1 mb 0.00 in0.0 mm 0.00 in/hr0.0 mm/hr 0.00 in0.0 mm
01:56 AM 42.3°F5.7°C 1.8°F-16.8°C 18% 3.0 mph E4.8 kmh E 4.9 mph7.9 kmh 25.31 in857.1 mb 0.00 in0.0 mm 0.00 in/hr0.0 mm/hr 0.00 in0.0 mm
02:01 AM 41.7°F5.4°C 1.4°F-17.0°C 18% 3.0 mph E4.8 kmh E 4.9 mph7.9 kmh 25.31 in857.1 mb 0.00 in0.0 mm 0.00 in/hr0.0 mm/hr 0.00 in0.0 mm
02:06 AM 41.2°F5.1°C 0.9°F-17.3°C 18% 2.0 mph E3.2 kmh E 4.0 mph6.4 kmh 25.31 in857.1 mb 0.00 in0.0 mm 0.00 in/hr0.0 mm/hr 0.00 in0.0 mm
02:11 AM 41.2°F5.1°C 0.9°F-17.3°C 18% 3.0 mph E4.8 kmh E 4.9 mph7.9 kmh 25.31 in857.1 mb 0.00 in0.0 mm 0.00 in/hr0.0 mm/hr 0.00 in0.0 mm
02:16 AM 40.8°F4.9°C 0.7°F-17.4°C 18% 3.0 mph E4.8 kmh E 4.5 mph7.2 kmh 25.31 in857.1 mb 0.00 in0.0 mm 0.00 in/hr0.0 mm/hr 0.00 in0.0 mm
02:21 AM 40.6°F4.8°C 0.5°F-17.5°C 18% 1.0 mph E1.6 kmh E -- 25.31 in857.1 mb 0.00 in0.0 mm 0.00 in/hr0.0 mm/hr 0.00 in0.0 mm
02:26 AM 40.6°F4.8°C 0.5°F-17.5°C 18% Calm Calm 2.7 mph4.3 kmh 25.31 in857.1 mb 0.00 in0.0 mm 0.00 in/hr0.0 mm/hr 0.00 in0.0 mm
02:31 AM 40.6°F4.8°C 0.5°F-17.5°C 18% Calm Calm -- 25.31 in857.1 mb 0.00 in0.0 mm 0.00 in/hr0.0 mm/hr 0.00 in0.0 mm
02:36 AM 40.5°F4.7°C 0.3°F-17.6°C 18% Calm Calm -- 25.31 in857.1 mb 0.00 in0.0 mm 0.00 in/hr0.0 mm/hr 0.00 in0.0 mm
02:41 AM 40.8°F4.9°C 3.9°F-15.6°C 21% Calm Calm 2.7 mph4.3 kmh 25.31 in857.1 mb 0.00 in0.0 mm 0.00 in/hr0.0 mm/hr 0.00 in0.0 mm
02:46 AM 41.0°F5.0°C 4.1°F-15.5°C 21% Calm Calm 3.6 mph5.8 kmh 25.31 in857.1 mb 0.00 in0.0 mm 0.00 in/hr0.0 mm/hr 0.00 in0.0 mm
02:51 AM 40.6°F4.8°C 3.7°F-15.7°C 21% 2.0 mph E3.2 kmh E 5.4 mph8.7 kmh 25.31 in857.1 mb 0.00 in0.0 mm 0.00 in/hr0.0 mm/hr 0.00 in0.0 mm
02:57 AM 40.1°F4.5°C 3.4°F-15.9°C 21% 2.0 mph E3.2 kmh E 4.0 mph6.4 kmh 25.31 in857.1 mb 0.00 in0.0 mm 0.00 in/hr0.0 mm/hr 0.00 in0.0 mm
03:02 AM 39.9°F4.4°C 3.2°F-16.0°C 21% 1.0 mph E1.6 kmh E 3.1 mph5.0 kmh 25.31 in857.1 mb 0.00 in0.0 mm 0.00 in/hr0.0 mm/hr 0.00 in0.0 mm
03:07 AM 39.4°F4.1°C 2.7°F-16.3°C 21% Calm Calm 3.6 mph5.8 kmh 25.31 in857.1 mb 0.00 in0.0 mm 0.00 in/hr0.0 mm/hr 0.00 in0.0 mm
03:12 AM 39.7°F4.3°C 3.0°F-16.1°C 21% 1.0 mph E1.6 kmh E 4.0 mph6.4 kmh 25.31 in857.1 mb 0.00 in0.0 mm 0.00 in/hr0.0 mm/hr 0.00 in0.0 mm
03:17 AM 39.0°F3.9°C 2.5°F-16.4°C 21% 2.0 mph E3.2 kmh E 4.0 mph6.4 kmh 25.31 in857.1 mb 0.00 in0.0 mm 0.00 in/hr0.0 mm/hr 0.00 in0.0 mm
03:22 AM 38.5°F3.6°C 3.9°F-15.6°C 23% 2.0 mph E3.2 kmh E 3.6 mph5.8 kmh 25.31 in857.1 mb 0.00 in0.0 mm 0.00 in/hr0.0 mm/hr 0.00 in0.0 mm
03:27 AM 38.1°F3.4°C 6.3°F-14.3°C 26% 1.0 mph E1.6 kmh E 3.6 mph5.8 kmh 25.31 in857.1 mb 0.00 in0.0 mm 0.00 in/hr0.0 mm/hr 0.00 in0.0 mm
03:32 AM 38.7°F3.7°C 6.8°F-14.0°C 26% 1.0 mph E1.6 kmh E 3.6 mph5.8 kmh 25.31 in857.1 mb 0.00 in0.0 mm 0.00 in/hr0.0 mm/hr 0.00 in0.0 mm
03:37 AM 39.6°F4.2°C 4.8°F-15.1°C 23% 2.0 mph E3.2 kmh E 4.0 mph6.4 kmh 25.31 in857.1 mb 0.00 in0.0 mm 0.00 in/hr0.0 mm/hr 0.00 in0.0 mm
03:42 AM 40.3°F4.6°C 5.5°F-14.7°C 23% 2.0 mph E3.2 kmh E 3.6 mph5.8 kmh 25.31 in857.1 mb 0.00 in0.0 mm 0.00 in/hr0.0 mm/hr 0.00 in0.0 mm
03:47 AM 39.7°F4.3°C 5.0°F-15.0°C 23% 3.0 mph E4.8 kmh E 4.9 mph7.9 kmh 25.31 in857.1 mb 0.00 in0.0 mm 0.00 in/hr0.0 mm/hr 0.00 in0.0 mm
03:52 AM 40.6°F4.8°C 5.7°F-14.6°C 23% 3.0 mph E4.8 kmh E 5.4 mph8.7 kmh 25.31 in857.1 mb 0.00 in0.0 mm 0.00 in/hr0.0 mm/hr 0.00 in0.0 mm
03:57 AM 40.5°F4.7°C 3.6°F-15.8°C 21% 3.0 mph E4.8 kmh E 5.8 mph9.3 kmh 25.31 in857.1 mb 0.00 in0.0 mm 0.00 in/hr0.0 mm/hr 0.00 in0.0 mm
04:02 AM 39.6°F4.2°C 4.8°F-15.1°C 23% 3.0 mph E4.8 kmh E 5.8 mph9.3 kmh 25.31 in857.1 mb 0.00 in0.0 mm 0.00 in/hr0.0 mm/hr 0.00 in0.0 mm
04:07 AM 38.1°F3.4°C 4.6°F-15.2°C 24% 2.0 mph ENE3.2 kmh ENE 4.0 mph6.4 kmh 25.31 in857.1 mb 0.00 in0.0 mm 0.00 in/hr0.0 mm/hr 0.00 in0.0 mm
04:12 AM 37.9°F3.3°C 6.1°F-14.4°C 26% 2.0 mph ENE3.2 kmh ENE 4.5 mph7.2 kmh 25.31 in857.1 mb 0.00 in0.0 mm 0.00 in/hr0.0 mm/hr 0.00 in0.0 mm
04:17 AM 39.0°F3.9°C 7.2°F-13.8°C 26% 3.0 mph ENE4.8 kmh ENE 4.0 mph6.4 kmh 25.31 in857.1 mb 0.00 in0.0 mm 0.00 in/hr0.0 mm/hr 0.00 in0.0 mm
04:22 AM 39.4°F4.1°C 7.3°F-13.7°C 26% 3.0 mph ENE4.8 kmh ENE 4.0 mph6.4 kmh 25.31 in857.1 mb 0.00 in0.0 mm 0.00 in/hr0.0 mm/hr 0.00 in0.0 mm
04:27 AM 39.2°F4.0°C 4.6°F-15.2°C 23% 1.0 mph ENE1.6 kmh ENE -- 25.31 in857.1 mb 0.00 in0.0 mm 0.00 in/hr0.0 mm/hr 0.00 in0.0 mm
04:32 AM 39.9°F4.4°C 5.2°F-14.9°C 23% Calm Calm -- 25.31 in857.1 mb 0.00 in0.0 mm 0.00 in/hr0.0 mm/hr 0.00 in0.0 mm
04:37 AM 40.5°F4.7°C 5.5°F-14.7°C 23% Calm Calm 3.1 mph5.0 kmh 25.31 in857.1 mb 0.00 in0.0 mm 0.00 in/hr0.0 mm/hr 0.00 in0.0 mm
04:42 AM 39.6°F4.2°C 4.8°F-15.1°C 23% 2.0 mph ENE3.2 kmh ENE 4.9 mph7.9 kmh 25.31 in857.1 mb 0.00 in0.0 mm 0.00 in/hr0.0 mm/hr 0.00 in0.0 mm
04:47 AM 39.7°F4.3°C 5.0°F-15.0°C 23% 4.0 mph ENE6.4 kmh ENE 5.4 mph8.7 kmh 25.31 in857.1 mb 0.00 in0.0 mm 0.00 in/hr0.0 mm/hr 0.00 in0.0 mm
04:52 AM 40.8°F4.9°C 3.9°F-15.6°C 21% 5.0 mph ENE8.0 kmh ENE 6.3 mph10.1 kmh 25.31 in857.1 mb 0.00 in0.0 mm 0.00 in/hr0.0 mm/hr 0.00 in0.0 mm
04:57 AM 40.3°F4.6°C 3.6°F-15.8°C 21% 5.0 mph ENE8.0 kmh ENE 5.8 mph9.3 kmh 25.31 in857.1 mb 0.00 in0.0 mm 0.00 in/hr0.0 mm/hr 0.00 in0.0 mm
05:02 AM 41.0°F5.0°C 4.1°F-15.5°C 21% 4.0 mph ENE6.4 kmh ENE 5.4 mph8.7 kmh 25.31 in857.1 mb 0.00 in0.0 mm 0.00 in/hr0.0 mm/hr 0.00 in0.0 mm
05:07 AM 42.1°F5.6°C 1.8°F-16.8°C 18% 4.0 mph ENE6.4 kmh ENE 4.9 mph7.9 kmh 25.31 in857.1 mb 0.00 in0.0 mm 0.00 in/hr0.0 mm/hr 0.00 in0.0 mm
05:12 AM 41.7°F5.4°C 1.4°F-17.0°C 18% 2.0 mph ENE3.2 kmh ENE 3.6 mph5.8 kmh 25.31 in857.1 mb 0.00 in0.0 mm 0.00 in/hr0.0 mm/hr 0.00 in0.0 mm
05:17 AM 40.3°F4.6°C 0.1°F-17.7°C 18% 2.0 mph ENE3.2 kmh ENE 4.0 mph6.4 kmh 25.31 in857.1 mb 0.00 in0.0 mm 0.00 in/hr0.0 mm/hr 0.00 in0.0 mm
05:22 AM 40.1°F4.5°C 0.0°F-17.8°C 18% 2.0 mph ENE3.2 kmh ENE 3.1 mph5.0 kmh 25.31 in857.1 mb 0.00 in0.0 mm 0.00 in/hr0.0 mm/hr 0.00 in0.0 mm
05:27 AM 39.7°F4.3°C -0.2°F-17.9°C 18% Calm Calm 3.1 mph5.0 kmh 25.31 in857.1 mb 0.00 in0.0 mm 0.00 in/hr0.0 mm/hr 0.00 in0.0 mm
05:32 AM 39.6°F4.2°C -0.4°F-18.0°C 18% Calm Calm -- 25.31 in857.1 mb 0.00 in0.0 mm 0.00 in/hr0.0 mm/hr 0.00 in0.0 mm
05:37 AM 41.4°F5.2°C 1.0°F-17.2°C 18% 1.0 mph ENE1.6 kmh ENE 3.6 mph5.8 kmh 25.31 in857.1 mb 0.00 in0.0 mm 0.00 in/hr0.0 mm/hr 0.00 in0.0 mm
05:42 AM 41.0°F5.0°C 0.9°F-17.3°C 18% 1.0 mph ENE1.6 kmh ENE 3.1 mph5.0 kmh 25.31 in857.1 mb 0.00 in0.0 mm 0.00 in/hr0.0 mm/hr 0.00 in0.0 mm
05:47 AM 39.7°F4.3°C -0.2°F-17.9°C 18% 1.0 mph ENE1.6 kmh ENE 3.6 mph5.8 kmh 25.31 in857.1 mb 0.00 in0.0 mm 0.00 in/hr0.0 mm/hr 0.00 in0.0 mm
05:52 AM 39.4°F4.1°C -0.6°F-18.1°C 18% 2.0 mph ENE3.2 kmh ENE 4.0 mph6.4 kmh 25.31 in857.1 mb 0.00 in0.0 mm 0.00 in/hr0.0 mm/hr 0.00 in0.0 mm
05:57 AM 38.8°F3.8°C 2.3°F-16.5°C 21% 3.0 mph ENE4.8 kmh ENE 5.4 mph8.7 kmh 25.31 in857.1 mb 0.00 in0.0 mm 0.00 in/hr0.0 mm/hr 0.00 in0.0 mm
06:02 AM 39.7°F4.3°C 3.0°F-16.1°C 21% 3.0 mph ENE4.8 kmh ENE 4.5 mph7.2 kmh 25.31 in857.1 mb 0.00 in0.0 mm 0.00 in/hr0.0 mm/hr 0.00 in0.0 mm
06:07 AM 39.2°F4.0°C 2.7°F-16.3°C 21% 2.0 mph ENE3.2 kmh ENE 4.0 mph6.4 kmh 25.31 in857.1 mb 0.00 in0.0 mm 0.00 in/hr0.0 mm/hr 0.00 in0.0 mm
06:12 AM 40.8°F4.9°C 3.9°F-15.6°C 21% 3.0 mph ENE4.8 kmh ENE 4.0 mph6.4 kmh 25.31 in857.1 mb 0.00 in0.0 mm 0.00 in/hr0.0 mm/hr 0.00 in0.0 mm
06:17 AM 41.0°F5.0°C 0.9°F-17.3°C 18% 3.0 mph ENE4.8 kmh ENE 4.5 mph7.2 kmh 25.31 in857.1 mb 0.00 in0.0 mm 0.00 in/hr0.0 mm/hr 0.00 in0.0 mm
06:22 AM 40.5°F4.7°C 0.3°F-17.6°C 18% 3.0 mph ENE4.8 kmh ENE 5.4 mph8.7 kmh 25.34 in858.1 mb 0.00 in0.0 mm 0.00 in/hr0.0 mm/hr 0.00 in0.0 mm
06:27 AM 41.2°F5.1°C 0.9°F-17.3°C 18% 4.0 mph ENE6.4 kmh ENE 4.9 mph7.9 kmh 25.34 in858.1 mb 0.00 in0.0 mm 0.00 in/hr0.0 mm/hr 0.00 in0.0 mm
06:32 AM 40.6°F4.8°C 0.5°F-17.5°C 18% 4.0 mph ENE6.4 kmh ENE 5.4 mph8.7 kmh 25.34 in858.1 mb 0.00 in0.0 mm 0.00 in/hr0.0 mm/hr 0.00 in0.0 mm
06:37 AM 40.5°F4.7°C 0.3°F-17.6°C 18% 4.0 mph ENE6.4 kmh ENE 5.8 mph9.3 kmh 25.34 in858.1 mb 0.00 in0.0 mm 0.00 in/hr0.0 mm/hr 0.00 in0.0 mm
06:42 AM 37.6°F3.1°C 1.2°F-17.1°C 21% 4.0 mph NE6.4 kmh NE 5.4 mph8.7 kmh 25.34 in858.1 mb 0.00 in0.0 mm 0.00 in/hr0.0 mm/hr 0.00 in0.0 mm
06:47 AM 37.2°F2.9°C 0.9°F-17.3°C 21% 3.0 mph NE4.8 kmh NE 5.8 mph9.3 kmh 25.34 in858.1 mb 0.00 in0.0 mm 0.00 in/hr0.0 mm/hr 0.00 in0.0 mm
06:52 AM 37.4°F3.0°C 3.9°F-15.6°C 24% 4.0 mph NE6.4 kmh NE 5.8 mph9.3 kmh 25.34 in858.1 mb 0.00 in0.0 mm 0.00 in/hr0.0 mm/hr 0.00 in0.0 mm
06:57 AM 38.3°F3.5°C 3.7°F-15.7°C 23% 4.0 mph NNE6.4 kmh NNE 5.8 mph9.3 kmh 25.34 in858.1 mb 0.00 in0.0 mm 0.00 in/hr0.0 mm/hr 0.00 in0.0 mm
07:02 AM 39.0°F3.9°C 4.5°F-15.3°C 23% 2.0 mph NNE3.2 kmh NNE 4.5 mph7.2 kmh 25.34 in858.1 mb 0.00 in0.0 mm 0.00 in/hr0.0 mm/hr 0.00 in0.0 mm
07:07 AM 39.4°F4.1°C 2.7°F-16.3°C 21% 1.0 mph NNE1.6 kmh NNE 4.9 mph7.9 kmh 25.34 in858.1 mb 0.00 in0.0 mm 0.00 in/hr0.0 mm/hr 0.00 in0.0 mm
07:12 AM 41.4°F5.2°C 4.5°F-15.3°C 21% 3.0 mph N4.8 kmh N 6.3 mph10.1 kmh 25.34 in858.1 mb 0.00 in0.0 mm 0.00 in/hr0.0 mm/hr 0.00 in0.0 mm
07:17 AM 42.3°F5.7°C 1.8°F-16.8°C 18% 4.0 mph NNW6.4 kmh NNW 5.8 mph9.3 kmh 25.34 in858.1 mb 0.00 in0.0 mm 0.00 in/hr0.0 mm/hr 0.00 in0.0 mm
07:22 AM 41.9°F5.5°C 1.6°F-16.9°C 18% 4.0 mph N6.4 kmh N 5.4 mph8.7 kmh 25.34 in858.1 mb 0.00 in0.0 mm 0.00 in/hr0.0 mm/hr 0.00 in0.0 mm
07:27 AM 39.6°F4.2°C -0.4°F-18.0°C 18% 3.0 mph N4.8 kmh N 5.4 mph8.7 kmh 25.34 in858.1 mb 0.00 in0.0 mm 0.00 in/hr0.0 mm/hr 0.00 in0.0 mm
07:32 AM 38.7°F3.7°C 2.1°F-16.6°C 21% 3.0 mph N4.8 kmh N 5.4 mph8.7 kmh 25.34 in858.1 mb 0.00 in0.0 mm 0.00 in/hr0.0 mm/hr 0.00 in0.0 mm
07:37 AM 38.5°F3.6°C 3.9°F-15.6°C 23% 4.0 mph N6.4 kmh N 5.8 mph9.3 kmh 25.34 in858.1 mb 0.00 in0.0 mm 0.00 in/hr0.0 mm/hr 0.00 in0.0 mm
07:42 AM 38.8°F3.8°C 4.3°F-15.4°C 23% 4.0 mph N6.4 kmh N 5.8 mph9.3 kmh 25.34 in858.1 mb 0.00 in0.0 mm 0.00 in/hr0.0 mm/hr 0.00 in0.0 mm
07:47 AM 38.1°F3.4°C 4.6°F-15.2°C 24% 4.0 mph N6.4 kmh N 5.4 mph8.7 kmh 25.34 in858.1 mb 0.00 in0.0 mm 0.00 in/hr0.0 mm/hr 0.00 in0.0 mm
07:52 AM 37.8°F3.2°C 6.1°F-14.4°C 26% 4.0 mph N6.4 kmh N 4.5 mph7.2 kmh 25.34 in858.1 mb 0.00 in0.0 mm 0.00 in/hr0.0 mm/hr 0.00 in0.0 mm
07:57 AM 38.3°F3.5°C 6.4°F-14.2°C 26% 4.0 mph N6.4 kmh N 5.4 mph8.7 kmh 25.34 in858.1 mb 0.00 in0.0 mm 0.00 in/hr0.0 mm/hr 0.00 in0.0 mm
08:02 AM 37.6°F3.1°C 5.9°F-14.5°C 26% 3.0 mph N4.8 kmh N 4.9 mph7.9 kmh 25.34 in858.1 mb 0.00 in0.0 mm 0.00 in/hr0.0 mm/hr 0.00 in0.0 mm
08:07 AM 37.9°F3.3°C 8.6°F-13.0°C 29% 2.0 mph N3.2 kmh N 3.6 mph5.8 kmh 25.34 in858.1 mb 0.00 in0.0 mm 0.00 in/hr0.0 mm/hr 0.00 in0.0 mm
08:12 AM 38.8°F3.8°C 8.6°F-13.0°C 28% 2.0 mph N3.2 kmh N 4.0 mph6.4 kmh 25.34 in858.1 mb 0.00 in0.0 mm 0.00 in/hr0.0 mm/hr 0.00 in0.0 mm
08:17 AM 39.4°F4.1°C 9.0°F-12.8°C 28% 2.0 mph N3.2 kmh N 4.9 mph7.9 kmh 25.34 in858.1 mb 0.00 in0.0 mm 0.00 in/hr0.0 mm/hr 0.00 in0.0 mm
08:22 AM 40.1°F4.5°C 8.1°F-13.3°C 26% 2.0 mph N3.2 kmh N 4.0 mph6.4 kmh 25.34 in858.1 mb 0.00 in0.0 mm 0.00 in/hr0.0 mm/hr 0.00 in0.0 mm
08:27 AM 41.2°F5.1°C 9.0°F-12.8°C 26% 2.0 mph N3.2 kmh N 4.9 mph7.9 kmh 25.34 in858.1 mb 0.00 in0.0 mm 0.00 in/hr0.0 mm/hr 0.00 in0.0 mm
08:32 AM 43.3°F6.3°C 8.1°F-13.3°C 23% 3.0 mph N4.8 kmh N 4.9 mph7.9 kmh 25.34 in858.1 mb 0.00 in0.0 mm 0.00 in/hr0.0 mm/hr 0.00 in0.0 mm
08:37 AM 45.3°F7.4°C 3.0°F-16.1°C 17% 4.0 mph N6.4 kmh N 6.3 mph10.1 kmh 25.34 in858.1 mb 0.00 in0.0 mm 0.00 in/hr0.0 mm/hr 0.00 in0.0 mm
08:42 AM 46.0°F7.8°C 3.7°F-15.7°C 17% 4.0 mph N6.4 kmh N 6.7 mph10.8 kmh 25.34 in858.1 mb 0.00 in0.0 mm 0.00 in/hr0.0 mm/hr 0.00 in0.0 mm
08:47 AM 46.8°F8.2°C 0.1°F-17.7°C 14% 4.0 mph NNE6.4 kmh NNE 6.3 mph10.1 kmh 25.34 in858.1 mb 0.00 in0.0 mm 0.00 in/hr0.0 mm/hr 0.00 in0.0 mm
08:52 AM 47.8°F8.8°C 1.0°F-17.2°C 14% 4.0 mph NNE6.4 kmh NNE 6.3 mph10.1 kmh 25.34 in858.1 mb 0.00 in0.0 mm 0.00 in/hr0.0 mm/hr 0.00 in0.0 mm
08:57 AM 49.1°F9.5°C 1.9°F-16.7°C 14% 2.0 mph NNE3.2 kmh NNE 4.9 mph7.9 kmh 25.34 in858.1 mb 0.00 in0.0 mm 0.00 in/hr0.0 mm/hr 0.00 in0.0 mm
09:02 AM 50.4°F10.2°C 3.0°F-16.1°C 14% 1.0 mph NE1.6 kmh NE 4.0 mph6.4 kmh 25.34 in858.1 mb 0.00 in0.0 mm 0.00 in/hr0.0 mm/hr 0.00 in0.0 mm
09:07 AM 48.4°F9.1°C -3.6°F-19.8°C 11% 2.0 mph NNE3.2 kmh NNE 5.8 mph9.3 kmh 25.37 in859.1 mb 0.00 in0.0 mm 0.00 in/hr0.0 mm/hr 0.00 in0.0 mm
09:12 AM 48.6°F9.2°C 1.6°F-16.9°C 14% 4.0 mph N6.4 kmh N 6.7 mph10.8 kmh 25.37 in859.1 mb 0.00 in0.0 mm 0.00 in/hr0.0 mm/hr 0.00 in0.0 mm
09:17 AM 48.9°F9.4°C -3.3°F-19.6°C 11% 5.0 mph N8.0 kmh N 12.1 mph19.5 kmh 25.37 in859.1 mb 0.00 in0.0 mm 0.00 in/hr0.0 mm/hr 0.00 in0.0 mm
09:22 AM 49.6°F9.8°C -2.7°F-19.3°C 11% 7.0 mph NNE11.3 kmh NNE 12.5 mph20.1 kmh 25.37 in859.1 mb 0.00 in0.0 mm 0.00 in/hr0.0 mm/hr 0.00 in0.0 mm
09:28 AM 49.8°F9.9°C -2.6°F-19.2°C 11% 8.0 mph N12.9 kmh N 12.1 mph19.5 kmh 25.37 in859.1 mb 0.00 in0.0 mm 0.00 in/hr0.0 mm/hr 0.00 in0.0 mm
09:33 AM 50.5°F10.3°C -2.0°F-18.9°C 11% 8.0 mph N12.9 kmh N 13.4 mph21.6 kmh 25.37 in859.1 mb 0.00 in0.0 mm 0.00 in/hr0.0 mm/hr 0.00 in0.0 mm
09:38 AM 50.9°F10.5°C -1.7°F-18.7°C 11% 8.0 mph NNE12.9 kmh NNE 12.1 mph19.5 kmh 25.37 in859.1 mb 0.00 in0.0 mm 0.00 in/hr0.0 mm/hr 0.00 in0.0 mm
09:43 AM 51.6°F10.9°C -1.1°F-18.4°C 11% 8.0 mph NNE12.9 kmh NNE 11.2 mph18.0 kmh 25.37 in859.1 mb 0.00 in0.0 mm 0.00 in/hr0.0 mm/hr 0.00 in0.0 mm
09:48 AM 51.3°F10.7°C -1.5°F-18.6°C 11% 8.0 mph N12.9 kmh N 11.0 mph17.7 kmh 25.37 in859.1 mb 0.00 in0.0 mm 0.00 in/hr0.0 mm/hr 0.00 in0.0 mm
09:53 AM 51.6°F10.9°C -1.1°F-18.4°C 11% 7.0 mph N11.3 kmh N 9.6 mph15.4 kmh 25.37 in859.1 mb 0.00 in0.0 mm 0.00 in/hr0.0 mm/hr 0.00 in0.0 mm
09:58 AM 51.4°F10.8°C -1.3°F-18.5°C 11% 7.0 mph N11.3 kmh N 10.1 mph16.3 kmh 25.37 in859.1 mb 0.00 in0.0 mm 0.00 in/hr0.0 mm/hr 0.00 in0.0 mm
10:03 AM 52.2°F11.2°C -0.8°F-18.2°C 11% 6.0 mph NNE9.7 kmh NNE 11.6 mph18.7 kmh 25.37 in859.1 mb 0.00 in0.0 mm 0.00 in/hr0.0 mm/hr 0.00 in0.0 mm
10:08 AM 52.0°F11.1°C -0.9°F-18.3°C 11% 6.0 mph N9.7 kmh N 9.6 mph15.4 kmh 25.34 in858.1 mb 0.00 in0.0 mm 0.00 in/hr0.0 mm/hr 0.00 in0.0 mm
10:13 AM 52.3°F11.3°C -0.6°F-18.1°C 11% 7.0 mph N11.3 kmh N 11.0 mph17.7 kmh 25.34 in858.1 mb 0.00 in0.0 mm 0.00 in/hr0.0 mm/hr 0.00 in0.0 mm
10:18 AM 52.5°F11.4°C -0.4°F-18.0°C 11% 7.0 mph N11.3 kmh N 9.2 mph14.8 kmh 25.34 in858.1 mb 0.00 in0.0 mm 0.00 in/hr0.0 mm/hr 0.00 in0.0 mm
10:23 AM 52.2°F11.2°C -0.8°F-18.2°C 11% 6.0 mph N9.7 kmh N 8.7 mph14.0 kmh 25.34 in858.1 mb 0.00 in0.0 mm 0.00 in/hr0.0 mm/hr 0.00 in0.0 mm
10:28 AM 51.3°F10.7°C -1.5°F-18.6°C 11% 6.0 mph NNW9.7 kmh NNW 9.6 mph15.4 kmh 25.34 in858.1 mb 0.00 in0.0 mm 0.00 in/hr0.0 mm/hr 0.00 in0.0 mm
10:33 AM 50.5°F10.3°C -2.0°F-18.9°C 11% 6.0 mph NW9.7 kmh NW 10.1 mph16.3 kmh 25.34 in858.1 mb 0.00 in0.0 mm 0.00 in/hr0.0 mm/hr 0.00 in0.0 mm
10:38 AM 50.9°F10.5°C -1.7°F-18.7°C 11% 7.0 mph NNW11.3 kmh NNW 9.6 mph15.4 kmh 25.34 in858.1 mb 0.00 in0.0 mm 0.00 in/hr0.0 mm/hr 0.00 in0.0 mm
10:43 AM 51.1°F10.6°C -1.5°F-18.6°C 11% 7.0 mph NNW11.3 kmh NNW 10.5 mph16.9 kmh 25.34 in858.1 mb 0.00 in0.0 mm 0.00 in/hr0.0 mm/hr 0.00 in0.0 mm
10:48 AM 52.5°F11.4°C -0.4°F-18.0°C 11% 7.0 mph NNW11.3 kmh NNW 10.1 mph16.3 kmh 25.34 in858.1 mb 0.00 in0.0 mm 0.00 in/hr0.0 mm/hr 0.00 in0.0 mm
10:53 AM 52.3°F11.3°C -0.6°F-18.1°C 11% 7.0 mph N11.3 kmh N 11.2 mph18.0 kmh 25.34 in858.1 mb 0.00 in0.0 mm 0.00 in/hr0.0 mm/hr 0.00 in0.0 mm
10:58 AM 52.7°F11.5°C -0.2°F-17.9°C 11% 7.0 mph N11.3 kmh N 10.5 mph16.9 kmh 25.34 in858.1 mb 0.00 in0.0 mm 0.00 in/hr0.0 mm/hr 0.00 in0.0 mm
11:03 AM 52.5°F11.4°C -0.4°F-18.0°C 11% 6.0 mph NNW9.7 kmh NNW 9.6 mph15.4 kmh 25.34 in858.1 mb 0.00 in0.0 mm 0.00 in/hr0.0 mm/hr 0.00 in0.0 mm
11:08 AM 52.9°F11.6°C -5537.2°C - 6.0 mph NNW9.7 kmh NNW 9.2 mph14.8 kmh 25.34 in858.1 mb 0.00 in0.0 mm 0.00 in/hr0.0 mm/hr 0.00 in0.0 mm
11:13 AM 54.0°F12.2°C -5537.2°C - 6.0 mph NNW9.7 kmh NNW 9.2 mph14.8 kmh 25.34 in858.1 mb 0.00 in0.0 mm 0.00 in/hr0.0 mm/hr 0.00 in0.0 mm
11:18 AM 54.3°F12.4°C -5537.2°C - 6.0 mph N9.7 kmh N 10.1 mph16.3 kmh 25.34 in858.1 mb 0.00 in0.0 mm 0.00 in/hr0.0 mm/hr 0.00 in0.0 mm
11:23 AM 54.5°F12.5°C -5537.2°C - 7.0 mph N11.3 kmh N 11.0 mph17.7 kmh 25.34 in858.1 mb 0.00 in0.0 mm 0.00 in/hr0.0 mm/hr 0.00 in0.0 mm
11:28 AM 55.8°F13.2°C -5537.2°C - 7.0 mph N11.3 kmh N 10.5 mph16.9 kmh 25.34 in858.1 mb 0.00 in0.0 mm 0.00 in/hr0.0 mm/hr 0.00 in0.0 mm
11:33 AM 55.6°F13.1°C -5537.2°C - 7.0 mph N11.3 kmh N 10.1 mph16.3 kmh 25.34 in858.1 mb 0.00 in0.0 mm 0.00 in/hr0.0 mm/hr 0.00 in0.0 mm
11:38 AM 56.7°F13.7°C -5537.2°C - 8.0 mph N12.9 kmh N 11.0 mph17.7 kmh 25.34 in858.1 mb 0.00 in0.0 mm 0.00 in/hr0.0 mm/hr 0.00 in0.0 mm
11:43 AM 56.3°F13.5°C -5537.2°C - 7.0 mph N11.3 kmh N 12.1 mph19.5 kmh 25.34 in858.1 mb 0.00 in0.0 mm 0.00 in/hr0.0 mm/hr 0.00 in0.0 mm
11:48 AM 56.1°F13.4°C -5537.2°C - 7.0 mph NNW11.3 kmh NNW 10.1 mph16.3 kmh 25.34 in858.1 mb 0.00 in0.0 mm 0.00 in/hr0.0 mm/hr 0.00 in0.0 mm
11:53 AM 56.7°F13.7°C -5537.2°C - 8.0 mph NNW12.9 kmh NNW 11.6 mph18.7 kmh 25.34 in858.1 mb 0.00 in0.0 mm 0.00 in/hr0.0 mm/hr 0.00 in0.0 mm
11:58 AM 56.8°F13.8°C -5537.2°C - 8.0 mph N12.9 kmh N 11.0 mph17.7 kmh 25.34 in858.1 mb 0.00 in0.0 mm 0.00 in/hr0.0 mm/hr 0.00 in0.0 mm
12:03 PM 57.0°F13.9°C -5537.2°C - 8.0 mph N12.9 kmh N 12.5 mph20.1 kmh 25.34 in858.1 mb 0.00 in0.0 mm 0.00 in/hr0.0 mm/hr 0.00 in0.0 mm
12:08 PM 57.4°F14.1°C -5537.2°C - 8.0 mph N12.9 kmh N 11.6 mph18.7 kmh 25.34 in858.1 mb 0.00 in0.0 mm 0.00 in/hr0.0 mm/hr 0.00 in0.0 mm
12:13 PM 58.3°F14.6°C -5537.2°C - 7.0 mph N11.3 kmh N 9.6 mph15.4 kmh 25.34 in858.1 mb 0.00 in0.0 mm 0.00 in/hr0.0 mm/hr 0.00 in0.0 mm
12:18 PM 58.8°F14.9°C -5537.2°C - 6.0 mph N9.7 kmh N 11.0 mph17.7 kmh 25.34 in858.1 mb 0.00 in0.0 mm 0.00 in/hr0.0 mm/hr 0.00 in0.0 mm
12:23 PM 59.2°F15.1°C -5537.2°C - 6.0 mph N9.7 kmh N 9.2 mph14.8 kmh 25.31 in857.1 mb 0.00 in0.0 mm 0.00 in/hr0.0 mm/hr 0.00 in0.0 mm
12:28 PM 60.1°F15.6°C -5537.2°C - 6.0 mph NNW9.7 kmh NNW 10.1 mph16.3 kmh 25.31 in857.1 mb 0.00 in0.0 mm 0.00 in/hr0.0 mm/hr 0.00 in0.0 mm
12:33 PM 60.3°F15.7°C -5537.2°C - 6.0 mph N9.7 kmh N 8.7 mph14.0 kmh 25.31 in857.1 mb 0.00 in0.0 mm 0.00 in/hr0.0 mm/hr 0.00 in0.0 mm
12:38 PM 59.7°F15.4°C -5537.2°C - 6.0 mph N9.7 kmh N 12.1 mph19.5 kmh 25.31 in857.1 mb 0.00 in0.0 mm 0.00 in/hr0.0 mm/hr 0.00 in0.0 mm
12:43 PM 60.3°F15.7°C -5537.2°C - 7.0 mph N11.3 kmh N 11.0 mph17.7 kmh 25.31 in857.1 mb 0.00 in0.0 mm 0.00 in/hr0.0 mm/hr 0.00 in0.0 mm
12:48 PM 60.6°F15.9°C -5537.2°C - 7.0 mph N11.3 kmh N 11.0 mph17.7 kmh 25.31 in857.1 mb 0.00 in0.0 mm 0.00 in/hr0.0 mm/hr 0.00 in0.0 mm
12:53 PM 60.4°F15.8°C -5537.2°C - 6.0 mph N9.7 kmh N 9.6 mph15.4 kmh 25.31 in857.1 mb 0.00 in0.0 mm 0.00 in/hr0.0 mm/hr 0.00 in0.0 mm
12:58 PM 60.8°F16.0°C -5537.2°C - 6.0 mph NNW9.7 kmh NNW 9.6 mph15.4 kmh 25.31 in857.1 mb 0.00 in0.0 mm 0.00 in/hr0.0 mm/hr 0.00 in0.0 mm
01:03 PM 61.3°F16.3°C -5537.2°C - 6.0 mph NNW9.7 kmh NNW 8.7 mph14.0 kmh 25.31 in857.1 mb 0.00 in0.0 mm 0.00 in/hr0.0 mm/hr 0.00 in0.0 mm
01:08 PM 61.3°F16.3°C -5537.2°C - 6.0 mph NNW9.7 kmh NNW 8.7 mph14.0 kmh 25.31 in857.1 mb 0.00 in0.0 mm 0.00 in/hr0.0 mm/hr 0.00 in0.0 mm
01:13 PM 61.5°F16.4°C -5537.2°C - 6.0 mph NNW9.7 kmh NNW 9.2 mph14.8 kmh 25.31 in857.1 mb 0.00 in0.0 mm 0.00 in/hr0.0 mm/hr 0.00 in0.0 mm
01:18 PM 61.7°F16.5°C -5537.2°C - 6.0 mph N9.7 kmh N 10.5 mph16.9 kmh 25.31 in857.1 mb 0.00 in0.0 mm 0.00 in/hr0.0 mm/hr 0.00 in0.0 mm
01:23 PM 62.1°F16.7°C -5537.2°C - 5.0 mph NNW8.0 kmh NNW 7.8 mph12.6 kmh 25.28 in856.1 mb 0.00 in0.0 mm 0.00 in/hr0.0 mm/hr 0.00 in0.0 mm
01:28 PM 62.2°F16.8°C -5537.2°C - 5.0 mph NNW8.0 kmh NNW 8.3 mph13.4 kmh 25.28 in856.1 mb 0.00 in0.0 mm 0.00 in/hr0.0 mm/hr 0.00 in0.0 mm
01:33 PM 62.2°F16.8°C -5537.2°C - 5.0 mph NNW8.0 kmh NNW 6.9 mph11.1 kmh 25.28 in856.1 mb 0.00 in0.0 mm 0.00 in/hr0.0 mm/hr 0.00 in0.0 mm
01:38 PM 62.6°F17.0°C -5537.2°C - 5.0 mph NW8.0 kmh NW 9.2 mph14.8 kmh 25.28 in856.1 mb 0.00 in0.0 mm 0.00 in/hr0.0 mm/hr 0.00 in0.0 mm
01:43 PM 63.1°F17.3°C -5537.2°C - 6.0 mph NW9.7 kmh NW 7.4 mph11.9 kmh 25.28 in856.1 mb 0.00 in0.0 mm 0.00 in/hr0.0 mm/hr 0.00 in0.0 mm
01:48 PM 63.1°F17.3°C -5537.2°C - 5.0 mph NNW8.0 kmh NNW 9.2 mph14.8 kmh 25.28 in856.1 mb 0.00 in0.0 mm 0.00 in/hr0.0 mm/hr 0.00 in0.0 mm
01:53 PM 63.7°F17.6°C -5537.2°C - 5.0 mph NNW8.0 kmh NNW 8.7 mph14.0 kmh 25.28 in856.1 mb 0.00 in0.0 mm 0.00 in/hr0.0 mm/hr 0.00 in0.0 mm
01:58 PM 64.2°F17.9°C -5537.2°C - 5.0 mph NNW8.0 kmh NNW 10.1 mph16.3 kmh 25.28 in856.1 mb 0.00 in0.0 mm 0.00 in/hr0.0 mm/hr 0.00 in0.0 mm
02:03 PM 64.0°F17.8°C -5537.2°C - 5.0 mph NNW8.0 kmh NNW 6.9 mph11.1 kmh 25.28 in856.1 mb 0.00 in0.0 mm 0.00 in/hr0.0 mm/hr 0.00 in0.0 mm
02:08 PM 64.0°F17.8°C -5537.2°C - 5.0 mph NW8.0 kmh NW 7.4 mph11.9 kmh 25.25 in855.1 mb 0.00 in0.0 mm 0.00 in/hr0.0 mm/hr 0.00 in0.0 mm
02:13 PM 63.7°F17.6°C -5537.2°C - 5.0 mph NW8.0 kmh NW 7.4 mph11.9 kmh 25.25 in855.1 mb 0.00 in0.0 mm 0.00 in/hr0.0 mm/hr 0.00 in0.0 mm
02:18 PM 64.4°F18.0°C -5537.2°C - 5.0 mph NW8.0 kmh NW 8.3 mph13.4 kmh 25.25 in855.1 mb 0.00 in0.0 mm 0.00 in/hr0.0 mm/hr 0.00 in0.0 mm
02:23 PM 65.1°F18.4°C -5537.2°C - 5.0 mph NNW8.0 kmh NNW 7.8 mph12.6 kmh 25.25 in855.1 mb 0.00 in0.0 mm 0.00 in/hr0.0 mm/hr 0.00 in0.0 mm
02:28 PM 65.3°F18.5°C -5537.2°C - 5.0 mph N8.0 kmh N 7.8 mph12.6 kmh 25.25 in855.1 mb 0.00 in0.0 mm 0.00 in/hr0.0 mm/hr 0.00 in0.0 mm
02:33 PM 64.6°F18.1°C -5537.2°C - 4.0 mph NNW6.4 kmh NNW 6.9 mph11.1 kmh 25.25 in855.1 mb 0.00 in0.0 mm 0.00 in/hr0.0 mm/hr 0.00 in0.0 mm
02:38 PM 65.1°F18.4°C -5537.2°C - 4.0 mph NW6.4 kmh NW 7.4 mph11.9 kmh 25.25 in855.1 mb 0.00 in0.0 mm 0.00 in/hr0.0 mm/hr 0.00 in0.0 mm
02:43 PM 65.8°F18.8°C -5537.2°C - 4.0 mph NNW6.4 kmh NNW 6.7 mph10.8 kmh 25.25 in855.1 mb 0.00 in0.0 mm 0.00 in/hr0.0 mm/hr 0.00 in0.0 mm
02:48 PM 66.0°F18.9°C -5537.2°C - 4.0 mph NNW6.4 kmh NNW 6.9 mph11.1 kmh 25.25 in855.1 mb 0.00 in0.0 mm 0.00 in/hr0.0 mm/hr 0.00 in0.0 mm
02:53 PM 65.8°F18.8°C -5537.2°C - 4.0 mph NNW6.4 kmh NNW 6.9 mph11.1 kmh 25.25 in855.1 mb 0.00 in0.0 mm 0.00 in/hr0.0 mm/hr 0.00 in0.0 mm
02:58 PM 66.2°F19.0°C -5537.2°C - 4.0 mph N6.4 kmh N 6.7 mph10.8 kmh 25.25 in855.1 mb 0.00 in0.0 mm 0.00 in/hr0.0 mm/hr 0.00 in0.0 mm
03:03 PM 66.6°F19.2°C -5537.2°C - 4.0 mph N6.4 kmh N 7.4 mph11.9 kmh 25.25 in855.1 mb 0.00 in0.0 mm 0.00 in/hr0.0 mm/hr 0.00 in0.0 mm
03:08 PM 66.6°F19.2°C -5537.2°C - 5.0 mph N8.0 kmh N 7.4 mph11.9 kmh 25.25 in855.1 mb 0.00 in0.0 mm 0.00 in/hr0.0 mm/hr 0.00 in0.0 mm
03:13 PM 66.7°F19.3°C -5537.2°C - 4.0 mph N6.4 kmh N 5.8 mph9.3 kmh 25.25 in855.1 mb 0.00 in0.0 mm 0.00 in/hr0.0 mm/hr 0.00 in0.0 mm
03:18 PM 66.9°F19.4°C -5537.2°C - 4.0 mph 6.4 kmh 6.3 mph10.1 kmh 25.25 in855.1 mb 0.00 in0.0 mm 0.00 in/hr0.0 mm/hr 0.00 in0.0 mm
03:23 PM 67.1°F19.5°C -5537.2°C - 3.0 mph N4.8 kmh N 4.9 mph7.9 kmh 25.25 in855.1 mb 0.00 in0.0 mm 0.00 in/hr0.0 mm/hr 0.00 in0.0 mm
03:28 PM 67.3°F19.6°C -5537.2°C - 2.0 mph N3.2 kmh N 5.8 mph9.3 kmh 25.25 in855.1 mb 0.00 in0.0 mm 0.00 in/hr0.0 mm/hr 0.00 in0.0 mm
03:33 PM 68.0°F20.0°C -5537.2°C - 3.0 mph NE4.8 kmh NE 5.4 mph8.7 kmh 25.25 in855.1 mb 0.00 in0.0 mm 0.00 in/hr0.0 mm/hr 0.00 in0.0 mm
03:38 PM 68.2°F20.1°C -5537.2°C - 3.0 mph NE4.8 kmh NE 6.7 mph10.8 kmh 25.25 in855.1 mb 0.00 in0.0 mm 0.00 in/hr0.0 mm/hr 0.00 in0.0 mm
03:43 PM 68.2°F20.1°C -5537.2°C - 3.0 mph NE4.8 kmh NE 6.9 mph11.1 kmh 25.25 in855.1 mb 0.00 in0.0 mm 0.00 in/hr0.0 mm/hr 0.00 in0.0 mm
03:48 PM 68.4°F20.2°C -5537.2°C - 2.0 mph NE3.2 kmh NE 4.9 mph7.9 kmh 25.25 in855.1 mb 0.00 in0.0 mm 0.00 in/hr0.0 mm/hr 0.00 in0.0 mm
03:53 PM 68.2°F20.1°C -5537.2°C - 2.0 mph NNE3.2 kmh NNE 5.8 mph9.3 kmh 25.22 in854.0 mb 0.00 in0.0 mm 0.00 in/hr0.0 mm/hr 0.00 in0.0 mm
03:58 PM 68.2°F20.1°C -5537.2°C - 2.0 mph N3.2 kmh N 5.8 mph9.3 kmh 25.22 in854.0 mb 0.00 in0.0 mm 0.00 in/hr0.0 mm/hr 0.00 in0.0 mm
04:03 PM 68.2°F20.1°C -5537.2°C - 2.0 mph NNE3.2 kmh NNE 5.4 mph8.7 kmh 25.22 in854.0 mb 0.00 in0.0 mm 0.00 in/hr0.0 mm/hr 0.00 in0.0 mm
04:08 PM 68.4°F20.2°C -5537.2°C - 3.0 mph NNE4.8 kmh NNE 6.3 mph10.1 kmh 25.22 in854.0 mb 0.00 in0.0 mm 0.00 in/hr0.0 mm/hr 0.00 in0.0 mm
04:13 PM 68.4°F20.2°C -5537.2°C - 3.0 mph NNE4.8 kmh NNE 5.8 mph9.3 kmh 25.22 in854.0 mb 0.00 in0.0 mm 0.00 in/hr0.0 mm/hr 0.00 in0.0 mm
04:18 PM 68.4°F20.2°C -5537.2°C - 2.0 mph NNE3.2 kmh NNE 4.9 mph7.9 kmh 25.22 in854.0 mb 0.00 in0.0 mm 0.00 in/hr0.0 mm/hr 0.00 in0.0 mm
04:23 PM 68.5°F20.3°C -5537.2°C - 2.0 mph NE3.2 kmh NE 4.5 mph7.2 kmh 25.22 in854.0 mb 0.00 in0.0 mm 0.00 in/hr0.0 mm/hr 0.00 in0.0 mm
04:28 PM 69.1°F20.6°C -5537.2°C - 2.0 mph NE3.2 kmh NE 4.5 mph7.2 kmh 25.22 in854.0 mb 0.00 in0.0 mm 0.00 in/hr0.0 mm/hr 0.00 in0.0 mm
04:33 PM 68.9°F20.5°C -5537.2°C - 3.0 mph NE4.8 kmh NE 5.4 mph8.7 kmh 25.22 in854.0 mb 0.00 in0.0 mm 0.00 in/hr0.0 mm/hr 0.00 in0.0 mm
04:38 PM 68.5°F20.3°C -5537.2°C - 3.0 mph NE4.8 kmh NE 5.4 mph8.7 kmh 25.22 in854.0 mb 0.00 in0.0 mm 0.00 in/hr0.0 mm/hr 0.00 in0.0 mm
04:43 PM 68.9°F20.5°C -5537.2°C - 2.0 mph NE3.2 kmh NE 4.0 mph6.4 kmh 25.22 in854.0 mb 0.00 in0.0 mm 0.00 in/hr0.0 mm/hr 0.00 in0.0 mm
04:48 PM 68.9°F20.5°C -5537.2°C - 1.0 mph NE1.6 kmh NE 3.1 mph5.0 kmh 25.22 in854.0 mb 0.00 in0.0 mm 0.00 in/hr0.0 mm/hr 0.00 in0.0 mm
04:53 PM 69.4°F20.8°C -5537.2°C - 1.0 mph NE1.6 kmh NE 4.0 mph6.4 kmh 25.22 in854.0 mb 0.00 in0.0 mm 0.00 in/hr0.0 mm/hr 0.00 in0.0 mm
04:58 PM 69.6°F20.9°C -5537.2°C - 2.0 mph NE3.2 kmh NE 4.5 mph7.2 kmh 25.22 in854.0 mb 0.00 in0.0 mm 0.00 in/hr0.0 mm/hr 0.00 in0.0 mm
05:03 PM 69.6°F20.9°C -5537.2°C - 3.0 mph NE4.8 kmh NE 4.9 mph7.9 kmh 25.22 in854.0 mb 0.00 in0.0 mm 0.00 in/hr0.0 mm/hr 0.00 in0.0 mm
05:08 PM 69.3°F20.7°C -5537.2°C - 3.0 mph NE4.8 kmh NE 5.4 mph8.7 kmh 25.22 in854.0 mb 0.00 in0.0 mm 0.00 in/hr0.0 mm/hr 0.00 in0.0 mm
05:13 PM 68.4°F20.2°C -5537.2°C - 4.0 mph ENE6.4 kmh ENE 5.4 mph8.7 kmh 25.22 in854.0 mb 0.00 in0.0 mm 0.00 in/hr0.0 mm/hr 0.00 in0.0 mm
05:18 PM 67.6°F19.8°C -5537.2°C - 4.0 mph ENE6.4 kmh ENE 4.9 mph7.9 kmh 25.22 in854.0 mb 0.00 in0.0 mm 0.00 in/hr0.0 mm/hr 0.00 in0.0 mm
05:23 PM 66.7°F19.3°C -5537.2°C - 3.0 mph NE4.8 kmh NE 4.9 mph7.9 kmh 25.22 in854.0 mb 0.00 in0.0 mm 0.00 in/hr0.0 mm/hr 0.00 in0.0 mm
05:28 PM 65.7°F18.7°C -5537.2°C - 3.0 mph NE4.8 kmh NE 4.5 mph7.2 kmh 25.22 in854.0 mb 0.00 in0.0 mm 0.00 in/hr0.0 mm/hr 0.00 in0.0 mm
05:33 PM 65.3°F18.5°C -5537.2°C - 3.0 mph ENE4.8 kmh ENE 4.9 mph7.9 kmh 25.22 in854.0 mb 0.00 in0.0 mm 0.00 in/hr0.0 mm/hr 0.00 in0.0 mm
05:38 PM 64.4°F18.0°C -5537.2°C - 3.0 mph ENE4.8 kmh ENE 4.9 mph7.9 kmh 25.22 in854.0 mb 0.00 in0.0 mm 0.00 in/hr0.0 mm/hr 0.00 in0.0 mm
05:43 PM 63.5°F17.5°C -5537.2°C - 3.0 mph ENE4.8 kmh ENE 4.5 mph7.2 kmh 25.22 in854.0 mb 0.00 in0.0 mm 0.00 in/hr0.0 mm/hr 0.00 in0.0 mm
05:49 PM 62.6°F17.0°C -5537.2°C - 1.0 mph NE1.6 kmh NE 4.0 mph6.4 kmh 25.22 in854.0 mb 0.00 in0.0 mm 0.00 in/hr0.0 mm/hr 0.00 in0.0 mm
05:54 PM 61.7°F16.5°C -5537.2°C - Calm Calm 3.1 mph5.0 kmh 25.22 in854.0 mb 0.00 in0.0 mm 0.00 in/hr0.0 mm/hr 0.00 in0.0 mm
05:59 PM 61.3°F16.3°C -5537.2°C - Calm Calm 3.1 mph5.0 kmh 25.22 in854.0 mb 0.00 in0.0 mm 0.00 in/hr0.0 mm/hr 0.00 in0.0 mm
06:04 PM 60.6°F15.9°C -5537.2°C - Calm Calm 3.1 mph5.0 kmh 25.22 in854.0 mb 0.00 in0.0 mm 0.00 in/hr0.0 mm/hr 0.00 in0.0 mm
06:09 PM 60.1°F15.6°C -5537.2°C - Calm Calm -- 25.22 in854.0 mb 0.00 in0.0 mm 0.00 in/hr0.0 mm/hr 0.00 in0.0 mm
06:14 PM 59.5°F15.3°C -5537.2°C - Calm Calm -- 25.22 in854.0 mb 0.00 in0.0 mm 0.00 in/hr0.0 mm/hr 0.00 in0.0 mm
06:19 PM 59.2°F15.1°C -5537.2°C - Calm Calm -- 25.22 in854.0 mb 0.00 in0.0 mm 0.00 in/hr0.0 mm/hr 0.00 in0.0 mm
06:24 PM 59.0°F15.0°C -5537.2°C - Calm Calm -- 25.22 in854.0 mb 0.00 in0.0 mm 0.00 in/hr0.0 mm/hr 0.00 in0.0 mm
06:29 PM 58.6°F14.8°C -5537.2°C - Calm Calm -- 25.22 in854.0 mb 0.00 in0.0 mm 0.00 in/hr0.0 mm/hr 0.00 in0.0 mm
06:34 PM 58.6°F14.8°C -5537.2°C - Calm Calm 3.1 mph5.0 kmh 25.22 in854.0 mb 0.00 in0.0 mm 0.00 in/hr0.0 mm/hr 0.00 in0.0 mm
06:39 PM 58.6°F14.8°C -5537.2°C - Calm Calm 3.1 mph5.0 kmh 25.22 in854.0 mb 0.00 in0.0 mm 0.00 in/hr0.0 mm/hr 0.00 in0.0 mm
06:44 PM 58.6°F14.8°C -5537.2°C - 1.0 mph ENE1.6 kmh ENE 3.6 mph5.8 kmh 25.22 in854.0 mb 0.00 in0.0 mm 0.00 in/hr0.0 mm/hr 0.00 in0.0 mm
06:49 PM 58.6°F14.8°C -5537.2°C - 1.0 mph ENE1.6 kmh ENE 3.6 mph5.8 kmh 25.22 in854.0 mb 0.00 in0.0 mm 0.00 in/hr0.0 mm/hr 0.00 in0.0 mm
06:54 PM 58.5°F14.7°C -5537.2°C - Calm Calm 3.1 mph5.0 kmh 25.22 in854.0 mb 0.00 in0.0 mm 0.00 in/hr0.0 mm/hr 0.00 in0.0 mm
06:59 PM 58.1°F14.5°C -5537.2°C - Calm Calm -- 25.22 in854.0 mb 0.00 in0.0 mm 0.00 in/hr0.0 mm/hr 0.00 in0.0 mm
07:04 PM 57.9°F14.4°C -5537.2°C - Calm Calm 2.7 mph4.3 kmh 25.22 in854.0 mb 0.00 in0.0 mm 0.00 in/hr0.0 mm/hr 0.00 in0.0 mm
07:09 PM 57.9°F14.4°C -5537.2°C - Calm Calm 3.6 mph5.8 kmh 25.22 in854.0 mb 0.00 in0.0 mm 0.00 in/hr0.0 mm/hr 0.00 in0.0 mm
07:14 PM 57.6°F14.2°C -5537.2°C - Calm Calm 2.7 mph4.3 kmh 25.22 in854.0 mb 0.00 in0.0 mm 0.00 in/hr0.0 mm/hr 0.00 in0.0 mm
07:19 PM 57.4°F14.1°C -5537.2°C - 1.0 mph ENE1.6 kmh ENE 4.0 mph6.4 kmh 25.22 in854.0 mb 0.00 in0.0 mm 0.00 in/hr0.0 mm/hr 0.00 in0.0 mm
07:24 PM 57.2°F14.0°C -5537.2°C - 1.0 mph ENE1.6 kmh ENE 3.6 mph5.8 kmh 25.22 in854.0 mb 0.00 in0.0 mm 0.00 in/hr0.0 mm/hr 0.00 in0.0 mm
07:29 PM 56.8°F13.8°C -5537.2°C - Calm Calm -- 25.22 in854.0 mb 0.00 in0.0 mm 0.00 in/hr0.0 mm/hr 0.00 in0.0 mm
07:34 PM 56.5°F13.6°C -5537.2°C - Calm Calm 3.1 mph5.0 kmh 25.22 in854.0 mb 0.00 in0.0 mm 0.00 in/hr0.0 mm/hr 0.00 in0.0 mm
07:39 PM 56.3°F13.5°C -5537.2°C - Calm Calm 3.6 mph5.8 kmh 25.22 in854.0 mb 0.00 in0.0 mm 0.00 in/hr0.0 mm/hr 0.00 in0.0 mm
07:44 PM 56.3°F13.5°C -5537.2°C - 1.0 mph ENE1.6 kmh ENE 3.6 mph5.8 kmh 25.22 in854.0 mb 0.00 in0.0 mm 0.00 in/hr0.0 mm/hr 0.00 in0.0 mm
07:49 PM 56.5°F13.6°C -5537.2°C - Calm Calm -- 25.22 in854.0 mb 0.00 in0.0 mm 0.00 in/hr0.0 mm/hr 0.00 in0.0 mm
07:54 PM 56.7°F13.7°C -5537.2°C - Calm Calm 2.7 mph4.3 kmh 25.22 in854.0 mb 0.00 in0.0 mm 0.00 in/hr0.0 mm/hr 0.00 in0.0 mm
07:59 PM 56.5°F13.6°C -5537.2°C - 1.0 mph ENE1.6 kmh ENE 4.5 mph7.2 kmh 25.22 in854.0 mb 0.00 in0.0 mm 0.00 in/hr0.0 mm/hr 0.00 in0.0 mm
08:04 PM 56.3°F13.5°C -5537.2°C - 2.0 mph ENE3.2 kmh ENE 4.0 mph6.4 kmh 25.22 in854.0 mb 0.00 in0.0 mm 0.00 in/hr0.0 mm/hr 0.00 in0.0 mm
08:09 PM 56.1°F13.4°C -5537.2°C - 2.0 mph ENE3.2 kmh ENE 3.6 mph5.8 kmh 25.22 in854.0 mb 0.00 in0.0 mm 0.00 in/hr0.0 mm/hr 0.00 in0.0 mm
08:14 PM 56.1°F13.4°C -5537.2°C - 2.0 mph ENE3.2 kmh ENE 4.0 mph6.4 kmh 25.22 in854.0 mb 0.00 in0.0 mm 0.00 in/hr0.0 mm/hr 0.00 in0.0 mm
08:19 PM 56.1°F13.4°C -5537.2°C - 1.0 mph ENE1.6 kmh ENE 3.1 mph5.0 kmh 25.22 in854.0 mb 0.00 in0.0 mm 0.00 in/hr0.0 mm/hr 0.00 in0.0 mm
08:24 PM 56.1°F13.4°C -5537.2°C - Calm Calm 3.6 mph5.8 kmh 25.22 in854.0 mb 0.00 in0.0 mm 0.00 in/hr0.0 mm/hr 0.00 in0.0 mm
08:29 PM 56.3°F13.5°C -5537.2°C - Calm Calm 2.7 mph4.3 kmh 25.22 in854.0 mb 0.00 in0.0 mm 0.00 in/hr0.0 mm/hr 0.00 in0.0 mm
08:34 PM 56.5°F13.6°C -5537.2°C - Calm Calm 4.5 mph7.2 kmh 25.22 in854.0 mb 0.00 in0.0 mm 0.00 in/hr0.0 mm/hr 0.00 in0.0 mm
08:39 PM 56.5°F13.6°C -5537.2°C - Calm Calm -- 25.22 in854.0 mb 0.00 in0.0 mm 0.00 in/hr0.0 mm/hr 0.00 in0.0 mm
08:44 PM 56.5°F13.6°C -5537.2°C - Calm Calm 3.1 mph5.0 kmh 25.22 in854.0 mb 0.00 in0.0 mm 0.00 in/hr0.0 mm/hr 0.00 in0.0 mm
08:49 PM 56.1°F13.4°C -5537.2°C - Calm Calm 4.0 mph6.4 kmh 25.22 in854.0 mb 0.00 in0.0 mm 0.00 in/hr0.0 mm/hr 0.00 in0.0 mm
08:54 PM 55.9°F13.3°C -5537.2°C - Calm Calm 4.0 mph6.4 kmh 25.22 in854.0 mb 0.00 in0.0 mm 0.00 in/hr0.0 mm/hr 0.00 in0.0 mm
08:59 PM 55.9°F13.3°C -5537.2°C - Calm Calm 3.1 mph5.0 kmh 25.22 in854.0 mb 0.00 in0.0 mm 0.00 in/hr0.0 mm/hr 0.00 in0.0 mm
09:04 PM 56.1°F13.4°C -5537.2°C - 1.0 mph ENE1.6 kmh ENE 4.5 mph7.2 kmh 25.22 in854.0 mb 0.00 in0.0 mm 0.00 in/hr0.0 mm/hr 0.00 in0.0 mm
09:09 PM 55.9°F13.3°C -5537.2°C - 1.0 mph ENE1.6 kmh ENE 4.0 mph6.4 kmh 25.22 in854.0 mb 0.00 in0.0 mm 0.00 in/hr0.0 mm/hr 0.00 in0.0 mm
09:14 PM 55.9°F13.3°C -5537.2°C - Calm Calm 3.1 mph5.0 kmh 25.22 in854.0 mb 0.00 in0.0 mm 0.00 in/hr0.0 mm/hr 0.00 in0.0 mm
09:19 PM 55.9°F13.3°C -5537.2°C - Calm Calm 2.7 mph4.3 kmh 25.22 in854.0 mb 0.00 in0.0 mm 0.00 in/hr0.0 mm/hr 0.00 in0.0 mm
09:24 PM 55.8°F13.2°C -5537.2°C - Calm Calm -- 25.22 in854.0 mb 0.00 in0.0 mm 0.00 in/hr0.0 mm/hr 0.00 in0.0 mm
09:29 PM 55.9°F13.3°C -5537.2°C - Calm Calm 4.9 mph7.9 kmh 25.22 in854.0 mb 0.00 in0.0 mm 0.00 in/hr0.0 mm/hr 0.00 in0.0 mm
09:34 PM 55.0°F12.8°C -5537.2°C - 2.0 mph E3.2 kmh E 5.8 mph9.3 kmh 25.22 in854.0 mb 0.00 in0.0 mm 0.00 in/hr0.0 mm/hr 0.00 in0.0 mm
09:39 PM 54.3°F12.4°C -5537.2°C - 3.0 mph E4.8 kmh E 5.4 mph8.7 kmh 25.22 in854.0 mb 0.00 in0.0 mm 0.00 in/hr0.0 mm/hr 0.00 in0.0 mm
09:44 PM 53.6°F12.0°C -5537.2°C - 1.0 mph E1.6 kmh E 3.6 mph5.8 kmh 25.22 in854.0 mb 0.00 in0.0 mm 0.00 in/hr0.0 mm/hr 0.00 in0.0 mm
09:49 PM 53.6°F12.0°C -5537.2°C - Calm Calm 4.0 mph6.4 kmh 25.22 in854.0 mb 0.00 in0.0 mm 0.00 in/hr0.0 mm/hr 0.00 in0.0 mm
09:54 PM 53.2°F11.8°C -5537.2°C - 1.0 mph E1.6 kmh E 3.1 mph5.0 kmh 25.22 in854.0 mb 0.00 in0.0 mm 0.00 in/hr0.0 mm/hr 0.00 in0.0 mm
09:59 PM 53.2°F11.8°C -5537.2°C - 1.0 mph E1.6 kmh E 3.1 mph5.0 kmh 25.22 in854.0 mb 0.00 in0.0 mm 0.00 in/hr0.0 mm/hr 0.00 in0.0 mm
10:04 PM 53.1°F11.7°C -5537.2°C - Calm Calm 2.7 mph4.3 kmh 25.22 in854.0 mb 0.00 in0.0 mm 0.00 in/hr0.0 mm/hr 0.00 in0.0 mm
10:09 PM 52.3°F11.3°C -0.6°F-18.1°C 11% 2.0 mph E3.2 kmh E 4.9 mph7.9 kmh 25.22 in854.0 mb 0.00 in0.0 mm 0.00 in/hr0.0 mm/hr 0.00 in0.0 mm
10:14 PM 51.4°F10.8°C -1.3°F-18.5°C 11% 2.0 mph E3.2 kmh E 3.1 mph5.0 kmh 25.22 in854.0 mb 0.00 in0.0 mm 0.00 in/hr0.0 mm/hr 0.00 in0.0 mm
10:19 PM 50.9°F10.5°C -1.7°F-18.7°C 11% Calm Calm -- 25.22 in854.0 mb 0.00 in0.0 mm 0.00 in/hr0.0 mm/hr 0.00 in0.0 mm
10:24 PM 51.3°F10.7°C -1.5°F-18.6°C 11% Calm Calm -- 25.22 in854.0 mb 0.00 in0.0 mm 0.00 in/hr0.0 mm/hr 0.00 in0.0 mm
10:29 PM 52.7°F11.5°C -5537.2°C - Calm Calm -- 25.22 in854.0 mb 0.00 in0.0 mm 0.00 in/hr0.0 mm/hr 0.00 in0.0 mm
10:34 PM 53.1°F11.7°C -5537.2°C - Calm Calm -- 25.22 in854.0 mb 0.00 in0.0 mm 0.00 in/hr0.0 mm/hr 0.00 in0.0 mm
10:39 PM 53.8°F12.1°C -5537.2°C - Calm Calm 4.0 mph6.4 kmh 25.22 in854.0 mb 0.00 in0.0 mm 0.00 in/hr0.0 mm/hr 0.00 in0.0 mm
10:44 PM 52.2°F11.2°C -0.8°F-18.2°C 11% 1.0 mph E1.6 kmh E 3.6 mph5.8 kmh 25.22 in854.0 mb 0.00 in0.0 mm 0.00 in/hr0.0 mm/hr 0.00 in0.0 mm
10:49 PM 52.3°F11.3°C -0.6°F-18.1°C 11% 2.0 mph E3.2 kmh E 3.6 mph5.8 kmh 25.22 in854.0 mb 0.00 in0.0 mm 0.00 in/hr0.0 mm/hr 0.00 in0.0 mm
10:54 PM 52.2°F11.2°C -0.8°F-18.2°C 11% 2.0 mph ENE3.2 kmh ENE 6.9 mph11.1 kmh 25.22 in854.0 mb 0.00 in0.0 mm 0.00 in/hr0.0 mm/hr 0.00 in0.0 mm
10:59 PM 52.0°F11.1°C -0.9°F-18.3°C 11% 4.0 mph NNE6.4 kmh NNE 6.3 mph10.1 kmh 25.22 in854.0 mb 0.00 in0.0 mm 0.00 in/hr0.0 mm/hr 0.00 in0.0 mm
11:04 PM 52.0°F11.1°C -0.9°F-18.3°C 11% 4.0 mph N6.4 kmh N 4.9 mph7.9 kmh 25.22 in854.0 mb 0.00 in0.0 mm 0.00 in/hr0.0 mm/hr 0.00 in0.0 mm
11:09 PM 52.0°F11.1°C -0.9°F-18.3°C 11% 3.0 mph 4.8 kmh 4.5 mph7.2 kmh 25.22 in854.0 mb 0.00 in0.0 mm 0.00 in/hr0.0 mm/hr 0.00 in0.0 mm
11:14 PM 50.7°F10.4°C -1.8°F-18.8°C 11% 2.0 mph 3.2 kmh 4.0 mph6.4 kmh 25.22 in854.0 mb 0.00 in0.0 mm 0.00 in/hr0.0 mm/hr 0.00 in0.0 mm
11:19 PM 51.4°F10.8°C -1.3°F-18.5°C 11% 2.0 mph N3.2 kmh N 3.6 mph5.8 kmh 25.22 in854.0 mb 0.00 in0.0 mm 0.00 in/hr0.0 mm/hr 0.00 in0.0 mm
11:24 PM 51.6°F10.9°C -1.1°F-18.4°C 11% 2.0 mph 3.2 kmh 3.6 mph5.8 kmh 25.22 in854.0 mb 0.00 in0.0 mm 0.00 in/hr0.0 mm/hr 0.00 in0.0 mm
11:29 PM 50.0°F10.0°C -2.4°F-19.1°C 11% 2.0 mph 3.2 kmh 3.6 mph5.8 kmh 25.22 in854.0 mb 0.00 in0.0 mm 0.00 in/hr0.0 mm/hr 0.00 in0.0 mm
11:34 PM 49.8°F9.9°C -2.6°F-19.2°C 11% Calm Calm -- 25.22 in854.0 mb 0.00 in0.0 mm 0.00 in/hr0.0 mm/hr 0.00 in0.0 mm
11:39 PM 50.0°F10.0°C -2.4°F-19.1°C 11% Calm Calm -- 25.22 in854.0 mb 0.00 in0.0 mm 0.00 in/hr0.0 mm/hr 0.00 in0.0 mm
11:44 PM 50.5°F10.3°C -2.0°F-18.9°C 11% Calm Calm 3.6 mph5.8 kmh 25.22 in854.0 mb 0.00 in0.0 mm 0.00 in/hr0.0 mm/hr 0.00 in0.0 mm
11:49 PM 51.4°F10.8°C -1.3°F-18.5°C 11% 2.0 mph N3.2 kmh N 3.6 mph5.8 kmh 25.22 in854.0 mb 0.00 in0.0 mm 0.00 in/hr0.0 mm/hr 0.00 in0.0 mm
11:54 PM 51.4°F10.8°C -1.3°F-18.5°C 11% 2.0 mph N3.2 kmh N 4.0 mph6.4 kmh 25.22 in854.0 mb 0.00 in0.0 mm 0.00 in/hr0.0 mm/hr 0.00 in0.0 mm
11:59 PM 50.2°F10.1°C -2.2°F-19.0°C 11% 1.0 mph N1.6 kmh N 3.1 mph5.0 kmh 25.22 in854.0 mb 0.00 in0.0 mm 0.00 in/hr0.0 mm/hr 0.00 in0.0 mm